Aviation Digital Data Service (ADDS)

Output produced by METARs form (1017 UTC 27 May 2016)
found at http://www.aviationweather.gov/adds/metars/
 
KALB 270520Z 2706/2806 17008KT P6SM BKN100 
     FM271600 18010G15KT P6SM SCT060 
     FM272300 18007KT P6SM FEW060